sensor_id;sensor_type;location;lat;lon;timestamp;P1;durP1;ratioP1;P2;durP2;ratioP2
35418;SDS011;21525;41.240;16.500;2023-05-21T00:01:11;16.77;;;9.60;;
35418;SDS011;21525;41.240;16.500;2023-05-21T00:03:41;16.52;;;9.63;;
35418;SDS011;21525;41.240;16.500;2023-05-21T00:06:10;17.08;;;10.00;;
35418;SDS011;21525;41.240;16.500;2023-05-21T00:08:38;13.60;;;8.90;;
35418;SDS011;21525;41.240;16.500;2023-05-21T00:11:04;15.23;;;10.35;;
35418;SDS011;21525;41.240;16.500;2023-05-21T00:13:30;15.35;;;10.75;;
35418;SDS011;21525;41.240;16.500;2023-05-21T00:15:56;15.20;;;9.77;;
35418;SDS011;21525;41.240;16.500;2023-05-21T00:18:22;15.07;;;9.90;;
35418;SDS011;21525;41.240;16.500;2023-05-21T00:20:49;13.00;;;8.65;;
35418;SDS011;21525;41.240;16.500;2023-05-21T00:23:15;14.30;;;9.15;;
35418;SDS011;21525;41.240;16.500;2023-05-21T00:25:43;13.75;;;9.05;;
35418;SDS011;21525;41.240;16.500;2023-05-21T00:28:10;15.57;;;9.67;;
35418;SDS011;21525;41.240;16.500;2023-05-21T00:30:36;16.05;;;9.23;;
35418;SDS011;21525;41.240;16.500;2023-05-21T00:33:02;13.90;;;9.35;;
35418;SDS011;21525;41.240;16.500;2023-05-21T00:35:28;17.75;;;9.98;;
35418;SDS011;21525;41.240;16.500;2023-05-21T00:37:54;12.95;;;8.65;;
35418;SDS011;21525;41.240;16.500;2023-05-21T00:40:20;12.23;;;8.65;;
35418;SDS011;21525;41.240;16.500;2023-05-21T00:42:45;15.38;;;9.50;;
35418;SDS011;21525;41.240;16.500;2023-05-21T00:45:12;17.35;;;8.80;;
35418;SDS011;21525;41.240;16.500;2023-05-21T00:47:41;16.60;;;9.15;;
35418;SDS011;21525;41.240;16.500;2023-05-21T00:50:08;18.60;;;9.32;;
35418;SDS011;21525;41.240;16.500;2023-05-21T00:52:35;13.32;;;8.60;;
35418;SDS011;21525;41.240;16.500;2023-05-21T00:55:06;13.85;;;9.57;;
35418;SDS011;21525;41.240;16.500;2023-05-21T00:57:34;15.65;;;9.52;;
35418;SDS011;21525;41.240;16.500;2023-05-21T01:00:02;15.63;;;9.07;;
35418;SDS011;21525;41.240;16.500;2023-05-21T01:02:29;16.70;;;9.65;;
35418;SDS011;21525;41.240;16.500;2023-05-21T01:04:58;15.50;;;9.13;;
35418;SDS011;21525;41.240;16.500;2023-05-21T01:07:24;14.68;;;9.73;;
35418;SDS011;21525;41.240;16.500;2023-05-21T01:09:50;13.55;;;8.45;;
35418;SDS011;21525;41.240;16.500;2023-05-21T01:12:16;15.20;;;9.20;;
35418;SDS011;21525;41.240;16.500;2023-05-21T01:14:43;14.55;;;8.57;;
35418;SDS011;21525;41.240;16.500;2023-05-21T01:17:09;15.10;;;9.02;;
35418;SDS011;21525;41.240;16.500;2023-05-21T01:19:37;13.70;;;8.65;;
35418;SDS011;21525;41.240;16.500;2023-05-21T01:22:04;14.32;;;8.45;;
35418;SDS011;21525;41.240;16.500;2023-05-21T01:24:32;14.95;;;8.98;;
35418;SDS011;21525;41.240;16.500;2023-05-21T01:27:01;12.45;;;8.40;;
35418;SDS011;21525;41.240;16.500;2023-05-21T01:29:27;16.55;;;8.98;;
35418;SDS011;21525;41.240;16.500;2023-05-21T01:34:34;14.43;;;8.90;;
35418;SDS011;21525;41.240;16.500;2023-05-21T01:39:55;16.92;;;9.07;;
35418;SDS011;21525;41.240;16.500;2023-05-21T01:42:24;13.93;;;8.85;;
35418;SDS011;21525;41.240;16.500;2023-05-21T01:44:51;15.27;;;8.77;;
35418;SDS011;21525;41.240;16.500;2023-05-21T01:47:21;13.85;;;8.55;;
35418;SDS011;21525;41.240;16.500;2023-05-21T01:49:50;14.10;;;9.95;;
35418;SDS011;21525;41.240;16.500;2023-05-21T01:52:17;16.83;;;8.98;;
35418;SDS011;21525;41.240;16.500;2023-05-21T01:54:43;17.00;;;9.25;;
35418;SDS011;21525;41.240;16.500;2023-05-21T01:57:08;16.13;;;9.52;;
35418;SDS011;21525;41.240;16.500;2023-05-21T01:59:35;12.98;;;8.25;;
35418;SDS011;21525;41.240;16.500;2023-05-21T02:02:01;16.25;;;9.13;;
35418;SDS011;21525;41.240;16.500;2023-05-21T02:04:26;14.60;;;9.55;;
35418;SDS011;21525;41.240;16.500;2023-05-21T02:06:52;15.70;;;9.82;;
35418;SDS011;21525;41.240;16.500;2023-05-21T02:09:19;13.35;;;9.30;;
35418;SDS011;21525;41.240;16.500;2023-05-21T02:11:45;15.65;;;10.13;;
35418;SDS011;21525;41.240;16.500;2023-05-21T02:14:10;17.70;;;10.70;;
35418;SDS011;21525;41.240;16.500;2023-05-21T02:16:38;18.13;;;10.48;;
35418;SDS011;21525;41.240;16.500;2023-05-21T02:19:04;16.20;;;11.00;;
35418;SDS011;21525;41.240;16.500;2023-05-21T02:21:31;18.60;;;11.00;;
35418;SDS011;21525;41.240;16.500;2023-05-21T02:23:56;15.05;;;9.52;;
35418;SDS011;21525;41.240;16.500;2023-05-21T02:26:22;13.35;;;10.23;;
35418;SDS011;21525;41.240;16.500;2023-05-21T02:28:48;17.50;;;9.82;;
35418;SDS011;21525;41.240;16.500;2023-05-21T02:31:14;18.42;;;11.32;;
35418;SDS011;21525;41.240;16.500;2023-05-21T02:33:40;18.70;;;10.63;;
35418;SDS011;21525;41.240;16.500;2023-05-21T02:36:06;19.60;;;12.15;;
35418;SDS011;21525;41.240;16.500;2023-05-21T02:38:37;16.48;;;11.52;;
35418;SDS011;21525;41.240;16.500;2023-05-21T02:41:08;21.50;;;12.75;;
35418;SDS011;21525;41.240;16.500;2023-05-21T02:43:36;18.02;;;12.45;;
35418;SDS011;21525;41.240;16.500;2023-05-21T02:46:03;17.42;;;11.80;;
35418;SDS011;21525;41.240;16.500;2023-05-21T02:48:30;16.55;;;11.30;;
35418;SDS011;21525;41.240;16.500;2023-05-21T02:50:55;16.33;;;11.18;;
35418;SDS011;21525;41.240;16.500;2023-05-21T02:53:22;15.73;;;10.95;;
35418;SDS011;21525;41.240;16.500;2023-05-21T02:55:48;15.70;;;10.77;;
35418;SDS011;21525;41.240;16.500;2023-05-21T02:58:14;17.73;;;11.02;;
35418;SDS011;21525;41.240;16.500;2023-05-21T03:00:40;19.52;;;11.52;;
35418;SDS011;21525;41.240;16.500;2023-05-21T03:03:06;17.88;;;10.35;;
35418;SDS011;21525;41.240;16.500;2023-05-21T03:05:32;19.70;;;10.05;;
35418;SDS011;21525;41.240;16.500;2023-05-21T03:07:57;18.38;;;11.05;;
35418;SDS011;21525;41.240;16.500;2023-05-21T03:10:24;17.42;;;10.07;;
35418;SDS011;21525;41.240;16.500;2023-05-21T03:12:50;15.55;;;10.18;;
35418;SDS011;21525;41.240;16.500;2023-05-21T03:15:16;17.13;;;9.98;;
35418;SDS011;21525;41.240;16.500;2023-05-21T03:17:48;15.30;;;10.00;;
35418;SDS011;21525;41.240;16.500;2023-05-21T03:20:14;14.30;;;9.98;;
35418;SDS011;21525;41.240;16.500;2023-05-21T03:22:43;15.45;;;10.02;;
35418;SDS011;21525;41.240;16.500;2023-05-21T03:25:10;18.17;;;9.85;;
35418;SDS011;21525;41.240;16.500;2023-05-21T03:27:38;17.95;;;10.02;;
35418;SDS011;21525;41.240;16.500;2023-05-21T03:30:09;15.82;;;9.70;;
35418;SDS011;21525;41.240;16.500;2023-05-21T03:32:48;14.88;;;9.73;;
35418;SDS011;21525;41.240;16.500;2023-05-21T03:35:15;20.58;;;10.63;;
35418;SDS011;21525;41.240;16.500;2023-05-21T03:37:41;18.35;;;10.15;;
35418;SDS011;21525;41.240;16.500;2023-05-21T03:40:07;20.83;;;10.90;;
35418;SDS011;21525;41.240;16.500;2023-05-21T03:42:33;17.25;;;10.80;;
35418;SDS011;21525;41.240;16.500;2023-05-21T03:44:59;18.23;;;9.70;;
35418;SDS011;21525;41.240;16.500;2023-05-21T03:47:31;16.13;;;9.63;;
35418;SDS011;21525;41.240;16.500;2023-05-21T03:49:58;14.88;;;10.07;;
35418;SDS011;21525;41.240;16.500;2023-05-21T03:52:25;14.52;;;9.07;;
35418;SDS011;21525;41.240;16.500;2023-05-21T03:54:51;14.43;;;9.50;;
35418;SDS011;21525;41.240;16.500;2023-05-21T03:57:16;15.52;;;10.10;;
35418;SDS011;21525;41.240;16.500;2023-05-21T03:59:44;13.75;;;9.35;;
35418;SDS011;21525;41.240;16.500;2023-05-21T04:02:10;15.43;;;9.82;;
35418;SDS011;21525;41.240;16.500;2023-05-21T04:04:35;15.18;;;9.63;;
35418;SDS011;21525;41.240;16.500;2023-05-21T04:07:01;15.32;;;9.57;;
35418;SDS011;21525;41.240;16.500;2023-05-21T04:09:29;15.63;;;9.80;;
35418;SDS011;21525;41.240;16.500;2023-05-21T04:11:56;16.17;;;10.00;;
35418;SDS011;21525;41.240;16.500;2023-05-21T04:14:22;19.70;;;9.73;;
35418;SDS011;21525;41.240;16.500;2023-05-21T04:16:49;15.30;;;9.00;;
35418;SDS011;21525;41.240;16.500;2023-05-21T04:19:15;13.13;;;9.32;;
35418;SDS011;21525;41.240;16.500;2023-05-21T04:21:41;15.25;;;9.07;;
35418;SDS011;21525;41.240;16.500;2023-05-21T04:24:09;16.67;;;10.18;;
35418;SDS011;21525;41.240;16.500;2023-05-21T04:26:54;16.38;;;9.55;;
35418;SDS011;21525;41.240;16.500;2023-05-21T04:29:21;16.13;;;9.43;;
35418;SDS011;21525;41.240;16.500;2023-05-21T04:31:48;15.30;;;8.90;;
35418;SDS011;21525;41.240;16.500;2023-05-21T04:34:14;15.88;;;9.30;;
35418;SDS011;21525;41.240;16.500;2023-05-21T04:36:44;14.38;;;9.75;;
35418;SDS011;21525;41.240;16.500;2023-05-21T04:39:11;17.35;;;10.27;;
35418;SDS011;21525;41.240;16.500;2023-05-21T04:41:38;14.35;;;10.82;;
35418;SDS011;21525;41.240;16.500;2023-05-21T04:44:08;15.50;;;10.60;;
35418;SDS011;21525;41.240;16.500;2023-05-21T04:46:35;19.67;;;11.27;;
35418;SDS011;21525;41.240;16.500;2023-05-21T04:49:01;15.98;;;10.60;;
35418;SDS011;21525;41.240;16.500;2023-05-21T04:51:30;16.08;;;9.95;;
35418;SDS011;21525;41.240;16.500;2023-05-21T04:53:56;15.30;;;9.57;;
35418;SDS011;21525;41.240;16.500;2023-05-21T04:56:23;17.10;;;11.05;;
35418;SDS011;21525;41.240;16.500;2023-05-21T04:58:54;16.60;;;9.68;;
35418;SDS011;21525;41.240;16.500;2023-05-21T05:03:49;18.92;;;10.70;;
35418;SDS011;21525;41.240;16.500;2023-05-21T05:06:16;15.98;;;10.43;;
35418;SDS011;21525;41.240;16.500;2023-05-21T05:08:42;14.85;;;9.60;;
35418;SDS011;21525;41.240;16.500;2023-05-21T05:11:08;17.83;;;9.43;;
35418;SDS011;21525;41.240;16.500;2023-05-21T05:13:34;19.33;;;9.90;;
35418;SDS011;21525;41.240;16.500;2023-05-21T05:16:00;15.68;;;9.77;;
35418;SDS011;21525;41.240;16.500;2023-05-21T05:18:26;13.23;;;9.55;;
35418;SDS011;21525;41.240;16.500;2023-05-21T05:20:53;15.43;;;9.23;;
35418;SDS011;21525;41.240;16.500;2023-05-21T05:23:18;17.90;;;9.88;;
35418;SDS011;21525;41.240;16.500;2023-05-21T05:25:44;17.40;;;9.82;;
35418;SDS011;21525;41.240;16.500;2023-05-21T05:28:10;13.57;;;9.55;;
35418;SDS011;21525;41.240;16.500;2023-05-21T05:30:36;15.02;;;8.85;;
35418;SDS011;21525;41.240;16.500;2023-05-21T05:33:18;15.75;;;9.52;;
35418;SDS011;21525;41.240;16.500;2023-05-21T05:35:43;13.98;;;9.40;;
35418;SDS011;21525;41.240;16.500;2023-05-21T05:38:09;14.30;;;10.05;;
35418;SDS011;21525;41.240;16.500;2023-05-21T05:40:35;14.85;;;9.18;;
35418;SDS011;21525;41.240;16.500;2023-05-21T05:43:01;15.23;;;9.32;;
35418;SDS011;21525;41.240;16.500;2023-05-21T05:45:27;14.85;;;9.38;;
35418;SDS011;21525;41.240;16.500;2023-05-21T05:47:53;16.60;;;9.05;;
35418;SDS011;21525;41.240;16.500;2023-05-21T05:50:19;16.30;;;9.07;;
35418;SDS011;21525;41.240;16.500;2023-05-21T05:52:45;14.23;;;8.98;;
35418;SDS011;21525;41.240;16.500;2023-05-21T05:55:11;17.55;;;9.30;;
35418;SDS011;21525;41.240;16.500;2023-05-21T05:57:37;14.38;;;9.10;;
35418;SDS011;21525;41.240;16.500;2023-05-21T06:00:08;17.13;;;9.13;;
35418;SDS011;21525;41.240;16.500;2023-05-21T06:02:43;15.13;;;9.23;;
35418;SDS011;21525;41.240;16.500;2023-05-21T06:05:09;13.50;;;8.75;;
35418;SDS011;21525;41.240;16.500;2023-05-21T06:07:36;17.23;;;9.05;;
35418;SDS011;21525;41.240;16.500;2023-05-21T06:10:06;13.98;;;8.13;;
35418;SDS011;21525;41.240;16.500;2023-05-21T06:12:32;16.17;;;8.82;;
35418;SDS011;21525;41.240;16.500;2023-05-21T06:14:58;12.95;;;8.55;;
35418;SDS011;21525;41.240;16.500;2023-05-21T06:17:24;16.75;;;8.95;;
35418;SDS011;21525;41.240;16.500;2023-05-21T06:19:51;13.68;;;8.95;;
35418;SDS011;21525;41.240;16.500;2023-05-21T06:22:17;13.75;;;8.60;;
35418;SDS011;21525;41.240;16.500;2023-05-21T06:24:42;16.10;;;8.98;;
35418;SDS011;21525;41.240;16.500;2023-05-21T06:27:08;12.45;;;8.10;;
35418;SDS011;21525;41.240;16.500;2023-05-21T06:29:34;19.58;;;8.85;;
35418;SDS011;21525;41.240;16.500;2023-05-21T06:32:01;20.63;;;8.70;;
35418;SDS011;21525;41.240;16.500;2023-05-21T06:34:27;12.23;;;7.35;;
35418;SDS011;21525;41.240;16.500;2023-05-21T06:36:53;17.05;;;8.15;;
35418;SDS011;21525;41.240;16.500;2023-05-21T06:39:19;13.35;;;7.70;;
35418;SDS011;21525;41.240;16.500;2023-05-21T06:41:47;16.30;;;7.80;;
35418;SDS011;21525;41.240;16.500;2023-05-21T06:44:38;13.52;;;7.75;;
35418;SDS011;21525;41.240;16.500;2023-05-21T06:47:19;17.48;;;7.45;;
35418;SDS011;21525;41.240;16.500;2023-05-21T06:49:45;15.00;;;6.38;;
35418;SDS011;21525;41.240;16.500;2023-05-21T06:52:10;16.77;;;7.10;;
35418;SDS011;21525;41.240;16.500;2023-05-21T06:54:36;17.88;;;7.60;;
35418;SDS011;21525;41.240;16.500;2023-05-21T06:57:02;20.92;;;8.15;;
35418;SDS011;21525;41.240;16.500;2023-05-21T06:59:29;14.63;;;7.45;;
35418;SDS011;21525;41.240;16.500;2023-05-21T07:01:56;14.73;;;7.10;;
35418;SDS011;21525;41.240;16.500;2023-05-21T07:04:21;16.33;;;7.95;;
35418;SDS011;21525;41.240;16.500;2023-05-21T07:06:48;15.32;;;7.28;;
35418;SDS011;21525;41.240;16.500;2023-05-21T07:09:14;12.82;;;7.00;;
35418;SDS011;21525;41.240;16.500;2023-05-21T07:13:56;16.20;;;7.13;;
35418;SDS011;21525;41.240;16.500;2023-05-21T10:43:20;11.93;;;6.93;;
35418;SDS011;21525;41.240;16.500;2023-05-21T10:56:45;11.80;;;7.93;;
35418;SDS011;21525;41.240;16.500;2023-05-21T10:59:24;13.15;;;7.57;;
35418;SDS011;21525;41.240;16.500;2023-05-21T11:02:04;13.23;;;7.78;;
35418;SDS011;21525;41.240;16.500;2023-05-21T11:04:31;14.10;;;8.93;;
35418;SDS011;21525;41.240;16.500;2023-05-21T11:06:58;18.23;;;9.68;;
35418;SDS011;21525;41.240;16.500;2023-05-21T11:09:25;16.13;;;9.32;;
35418;SDS011;21525;41.240;16.500;2023-05-21T11:11:51;19.23;;;10.85;;
35418;SDS011;21525;41.240;16.500;2023-05-21T11:14:37;19.05;;;11.13;;
35418;SDS011;21525;41.240;16.500;2023-05-21T11:19:34;20.48;;;12.15;;
35418;SDS011;21525;41.240;16.500;2023-05-21T11:22:08;19.20;;;11.98;;
35418;SDS011;21525;41.240;16.500;2023-05-21T11:24:50;18.23;;;10.60;;
35418;SDS011;21525;41.240;16.500;2023-05-21T11:30:04;20.60;;;11.60;;
35418;SDS011;21525;41.240;16.500;2023-05-21T11:32:35;19.10;;;11.40;;
35418;SDS011;21525;41.240;16.500;2023-05-21T11:35:02;16.10;;;10.77;;
35418;SDS011;21525;41.240;16.500;2023-05-21T11:37:28;17.88;;;10.77;;
35418;SDS011;21525;41.240;16.500;2023-05-21T11:40:14;17.00;;;11.13;;
35418;SDS011;21525;41.240;16.500;2023-05-21T11:42:41;22.60;;;12.25;;
35418;SDS011;21525;41.240;16.500;2023-05-21T11:45:09;19.77;;;11.25;;
35418;SDS011;21525;41.240;16.500;2023-05-21T11:47:35;25.00;;;11.95;;
35418;SDS011;21525;41.240;16.500;2023-05-21T11:50:01;24.65;;;13.27;;
35418;SDS011;21525;41.240;16.500;2023-05-21T11:52:28;23.80;;;13.30;;
35418;SDS011;21525;41.240;16.500;2023-05-21T11:54:55;25.50;;;12.90;;
35418;SDS011;21525;41.240;16.500;2023-05-21T11:57:26;25.95;;;12.90;;
35418;SDS011;21525;41.240;16.500;2023-05-21T11:59:55;25.73;;;13.50;;
35418;SDS011;21525;41.240;16.500;2023-05-21T12:02:26;21.60;;;12.93;;
35418;SDS011;21525;41.240;16.500;2023-05-21T12:04:56;21.45;;;12.20;;
35418;SDS011;21525;41.240;16.500;2023-05-21T12:07:25;21.77;;;13.60;;
35418;SDS011;21525;41.240;16.500;2023-05-21T12:09:54;23.00;;;12.32;;
35418;SDS011;21525;41.240;16.500;2023-05-21T12:12:21;20.10;;;12.63;;
35418;SDS011;21525;41.240;16.500;2023-05-21T12:14:49;24.35;;;12.48;;
35418;SDS011;21525;41.240;16.500;2023-05-21T12:17:16;24.15;;;13.68;;
35418;SDS011;21525;41.240;16.500;2023-05-21T12:19:42;25.58;;;12.68;;
35418;SDS011;21525;41.240;16.500;2023-05-21T12:22:10;25.48;;;13.40;;
35418;SDS011;21525;41.240;16.500;2023-05-21T12:24:36;20.58;;;12.73;;
35418;SDS011;21525;41.240;16.500;2023-05-21T12:27:03;26.63;;;12.27;;
35418;SDS011;21525;41.240;16.500;2023-05-21T12:29:38;22.15;;;12.90;;
35418;SDS011;21525;41.240;16.500;2023-05-21T12:32:08;25.63;;;13.20;;
35418;SDS011;21525;41.240;16.500;2023-05-21T12:34:37;19.90;;;11.63;;
35418;SDS011;21525;41.240;16.500;2023-05-21T12:37:19;20.33;;;12.80;;
35418;SDS011;21525;41.240;16.500;2023-05-21T12:39:47;24.13;;;12.38;;
35418;SDS011;21525;41.240;16.500;2023-05-21T12:42:15;23.35;;;11.77;;
35418;SDS011;21525;41.240;16.500;2023-05-21T12:44:47;17.92;;;11.48;;
35418;SDS011;21525;41.240;16.500;2023-05-21T12:47:13;22.20;;;12.85;;
35418;SDS011;21525;41.240;16.500;2023-05-21T12:49:39;24.17;;;12.38;;
35418;SDS011;21525;41.240;16.500;2023-05-21T12:52:07;22.58;;;14.23;;
35418;SDS011;21525;41.240;16.500;2023-05-21T12:54:35;22.63;;;12.10;;
35418;SDS011;21525;41.240;16.500;2023-05-21T12:57:15;18.90;;;12.38;;
35418;SDS011;21525;41.240;16.500;2023-05-21T12:59:46;19.35;;;11.30;;
35418;SDS011;21525;41.240;16.500;2023-05-21T13:02:17;23.83;;;12.20;;
35418;SDS011;21525;41.240;16.500;2023-05-21T13:07:27;25.80;;;14.50;;
35418;SDS011;21525;41.240;16.500;2023-05-21T13:09:55;21.98;;;13.48;;
35418;SDS011;21525;41.240;16.500;2023-05-21T13:12:22;21.90;;;14.23;;
35418;SDS011;21525;41.240;16.500;2023-05-21T13:14:49;21.90;;;13.25;;
35418;SDS011;21525;41.240;16.500;2023-05-21T13:17:16;23.67;;;13.40;;
35418;SDS011;21525;41.240;16.500;2023-05-21T13:19:45;23.55;;;13.35;;
35418;SDS011;21525;41.240;16.500;2023-05-21T13:22:31;28.88;;;15.23;;
35418;SDS011;21525;41.240;16.500;2023-05-21T13:24:57;25.25;;;12.75;;
35418;SDS011;21525;41.240;16.500;2023-05-21T13:27:23;21.33;;;13.43;;
35418;SDS011;21525;41.240;16.500;2023-05-21T13:29:48;23.98;;;14.63;;
35418;SDS011;21525;41.240;16.500;2023-05-21T13:32:14;24.42;;;15.88;;
35418;SDS011;21525;41.240;16.500;2023-05-21T13:34:40;33.53;;;19.30;;
35418;SDS011;21525;41.240;16.500;2023-05-21T13:37:06;22.58;;;14.70;;
35418;SDS011;21525;41.240;16.500;2023-05-21T13:39:31;23.45;;;15.02;;
35418;SDS011;21525;41.240;16.500;2023-05-21T13:41:57;20.63;;;13.02;;
35418;SDS011;21525;41.240;16.500;2023-05-21T13:44:23;19.48;;;13.63;;
35418;SDS011;21525;41.240;16.500;2023-05-21T13:46:49;22.30;;;13.43;;
35418;SDS011;21525;41.240;16.500;2023-05-21T13:49:15;21.92;;;13.85;;
35418;SDS011;21525;41.240;16.500;2023-05-21T13:51:41;21.23;;;13.35;;
35418;SDS011;21525;41.240;16.500;2023-05-21T13:54:07;21.83;;;14.02;;
35418;SDS011;21525;41.240;16.500;2023-05-21T13:56:32;23.85;;;14.75;;
35418;SDS011;21525;41.240;16.500;2023-05-21T13:58:58;23.63;;;13.93;;
35418;SDS011;21525;41.240;16.500;2023-05-21T14:01:24;21.42;;;12.90;;
35418;SDS011;21525;41.240;16.500;2023-05-21T14:03:50;25.55;;;14.82;;
35418;SDS011;21525;41.240;16.500;2023-05-21T14:06:15;26.52;;;14.52;;
35418;SDS011;21525;41.240;16.500;2023-05-21T14:08:41;21.10;;;12.75;;
35418;SDS011;21525;41.240;16.500;2023-05-21T14:11:07;22.55;;;13.00;;
35418;SDS011;21525;41.240;16.500;2023-05-21T14:13:33;21.52;;;13.15;;
35418;SDS011;21525;41.240;16.500;2023-05-21T14:15:58;23.25;;;13.70;;
35418;SDS011;21525;41.240;16.500;2023-05-21T14:18:24;24.25;;;14.63;;
35418;SDS011;21525;41.240;16.500;2023-05-21T14:20:50;26.85;;;14.18;;
35418;SDS011;21525;41.240;16.500;2023-05-21T14:23:17;23.05;;;14.90;;
35418;SDS011;21525;41.240;16.500;2023-05-21T14:25:43;25.88;;;14.88;;
35418;SDS011;21525;41.240;16.500;2023-05-21T14:28:08;23.48;;;14.57;;
35418;SDS011;21525;41.240;16.500;2023-05-21T14:30:34;24.30;;;14.18;;
35418;SDS011;21525;41.240;16.500;2023-05-21T14:33:00;21.88;;;14.48;;
35418;SDS011;21525;41.240;16.500;2023-05-21T14:35:25;24.65;;;14.38;;
35418;SDS011;21525;41.240;16.500;2023-05-21T14:37:51;21.55;;;13.50;;
35418;SDS011;21525;41.240;16.500;2023-05-21T14:40:18;26.70;;;14.50;;
35418;SDS011;21525;41.240;16.500;2023-05-21T14:42:44;21.98;;;14.63;;
35418;SDS011;21525;41.240;16.500;2023-05-21T14:45:10;22.42;;;12.45;;
35418;SDS011;21525;41.240;16.500;2023-05-21T14:47:36;19.17;;;13.10;;
35418;SDS011;21525;41.240;16.500;2023-05-21T14:50:02;26.80;;;13.80;;
35418;SDS011;21525;41.240;16.500;2023-05-21T14:52:27;22.08;;;13.77;;
35418;SDS011;21525;41.240;16.500;2023-05-21T14:54:54;19.02;;;12.10;;
35418;SDS011;21525;41.240;16.500;2023-05-21T14:57:20;20.15;;;12.25;;
35418;SDS011;21525;41.240;16.500;2023-05-21T14:59:45;19.58;;;11.57;;
35418;SDS011;21525;41.240;16.500;2023-05-21T15:02:11;22.17;;;9.90;;
35418;SDS011;21525;41.240;16.500;2023-05-21T15:04:37;15.18;;;9.20;;
35418;SDS011;21525;41.240;16.500;2023-05-21T15:07:03;15.38;;;8.13;;
35418;SDS011;21525;41.240;16.500;2023-05-21T15:09:29;15.27;;;7.35;;
35418;SDS011;21525;41.240;16.500;2023-05-21T15:11:55;15.25;;;7.88;;
35418;SDS011;21525;41.240;16.500;2023-05-21T15:14:21;14.07;;;7.90;;
35418;SDS011;21525;41.240;16.500;2023-05-21T15:16:46;18.13;;;8.50;;
35418;SDS011;21525;41.240;16.500;2023-05-21T15:19:12;18.77;;;8.55;;
35418;SDS011;21525;41.240;16.500;2023-05-21T15:21:38;21.48;;;9.45;;
35418;SDS011;21525;41.240;16.500;2023-05-21T15:24:03;20.42;;;9.95;;
35418;SDS011;21525;41.240;16.500;2023-05-21T15:26:29;20.10;;;12.18;;
35418;SDS011;21525;41.240;16.500;2023-05-21T15:28:55;23.77;;;12.70;;
35418;SDS011;21525;41.240;16.500;2023-05-21T15:31:21;18.77;;;10.88;;
35418;SDS011;21525;41.240;16.500;2023-05-21T15:33:47;21.38;;;11.55;;
35418;SDS011;21525;41.240;16.500;2023-05-21T15:36:13;17.30;;;11.60;;
35418;SDS011;21525;41.240;16.500;2023-05-21T15:38:38;19.73;;;12.73;;
35418;SDS011;21525;41.240;16.500;2023-05-21T15:41:04;19.95;;;12.60;;
35418;SDS011;21525;41.240;16.500;2023-05-21T15:43:30;24.00;;;14.07;;
35418;SDS011;21525;41.240;16.500;2023-05-21T15:45:56;26.83;;;15.70;;
35418;SDS011;21525;41.240;16.500;2023-05-21T15:48:22;20.45;;;13.32;;
35418;SDS011;21525;41.240;16.500;2023-05-21T15:50:48;21.80;;;13.75;;
35418;SDS011;21525;41.240;16.500;2023-05-21T15:53:14;23.30;;;14.00;;
35418;SDS011;21525;41.240;16.500;2023-05-21T15:55:40;23.67;;;13.98;;
35418;SDS011;21525;41.240;16.500;2023-05-21T15:58:05;20.23;;;12.30;;
35418;SDS011;21525;41.240;16.500;2023-05-21T16:00:32;19.70;;;12.52;;
35418;SDS011;21525;41.240;16.500;2023-05-21T16:02:58;25.70;;;13.40;;
35418;SDS011;21525;41.240;16.500;2023-05-21T16:05:24;21.60;;;12.40;;
35418;SDS011;21525;41.240;16.500;2023-05-21T16:07:50;20.50;;;12.80;;
35418;SDS011;21525;41.240;16.500;2023-05-21T16:10:16;19.83;;;12.65;;
35418;SDS011;21525;41.240;16.500;2023-05-21T16:12:42;20.58;;;11.43;;
35418;SDS011;21525;41.240;16.500;2023-05-21T16:15:08;16.75;;;11.50;;
35418;SDS011;21525;41.240;16.500;2023-05-21T16:17:34;19.90;;;11.93;;
35418;SDS011;21525;41.240;16.500;2023-05-21T16:20:00;20.58;;;12.43;;
35418;SDS011;21525;41.240;16.500;2023-05-21T16:22:25;19.27;;;11.32;;
35418;SDS011;21525;41.240;16.500;2023-05-21T16:24:52;18.85;;;12.80;;
35418;SDS011;21525;41.240;16.500;2023-05-21T16:27:18;18.02;;;13.35;;
35418;SDS011;21525;41.240;16.500;2023-05-21T16:29:44;19.30;;;11.95;;
35418;SDS011;21525;41.240;16.500;2023-05-21T16:32:10;19.33;;;11.00;;
35418;SDS011;21525;41.240;16.500;2023-05-21T16:34:38;26.65;;;13.10;;
35418;SDS011;21525;41.240;16.500;2023-05-21T16:37:03;19.63;;;13.07;;
35418;SDS011;21525;41.240;16.500;2023-05-21T16:39:29;21.55;;;12.80;;
35418;SDS011;21525;41.240;16.500;2023-05-21T16:41:55;26.42;;;13.15;;
35418;SDS011;21525;41.240;16.500;2023-05-21T16:44:24;19.42;;;12.18;;
35418;SDS011;21525;41.240;16.500;2023-05-21T16:46:50;17.95;;;11.75;;
35418;SDS011;21525;41.240;16.500;2023-05-21T16:49:16;22.55;;;12.35;;
35418;SDS011;21525;41.240;16.500;2023-05-21T16:51:42;21.73;;;12.98;;
35418;SDS011;21525;41.240;16.500;2023-05-21T16:54:08;20.00;;;13.02;;
35418;SDS011;21525;41.240;16.500;2023-05-21T16:56:33;26.05;;;13.05;;
35418;SDS011;21525;41.240;16.500;2023-05-21T16:58:59;19.63;;;13.18;;
35418;SDS011;21525;41.240;16.500;2023-05-21T17:01:25;20.30;;;11.82;;
35418;SDS011;21525;41.240;16.500;2023-05-21T17:03:51;22.00;;;12.82;;
35418;SDS011;21525;41.240;16.500;2023-05-21T17:06:17;21.63;;;12.07;;
35418;SDS011;21525;41.240;16.500;2023-05-21T17:08:43;18.90;;;12.88;;
35418;SDS011;21525;41.240;16.500;2023-05-21T17:11:08;22.95;;;14.20;;
35418;SDS011;21525;41.240;16.500;2023-05-21T17:13:34;19.60;;;14.00;;
35418;SDS011;21525;41.240;16.500;2023-05-21T17:16:01;23.50;;;13.88;;
35418;SDS011;21525;41.240;16.500;2023-05-21T17:18:27;24.80;;;15.13;;
35418;SDS011;21525;41.240;16.500;2023-05-21T17:20:53;22.33;;;14.60;;
35418;SDS011;21525;41.240;16.500;2023-05-21T17:23:20;21.00;;;15.35;;
35418;SDS011;21525;41.240;16.500;2023-05-21T17:25:46;28.38;;;16.27;;
35418;SDS011;21525;41.240;16.500;2023-05-21T17:28:12;23.40;;;16.58;;
35418;SDS011;21525;41.240;16.500;2023-05-21T17:30:37;26.95;;;16.67;;
35418;SDS011;21525;41.240;16.500;2023-05-21T17:33:03;25.13;;;17.05;;
35418;SDS011;21525;41.240;16.500;2023-05-21T17:35:30;27.98;;;18.67;;
35418;SDS011;21525;41.240;16.500;2023-05-21T17:37:56;27.33;;;17.48;;
35418;SDS011;21525;41.240;16.500;2023-05-21T17:40:22;31.00;;;20.08;;
35418;SDS011;21525;41.240;16.500;2023-05-21T17:42:49;31.05;;;18.27;;
35418;SDS011;21525;41.240;16.500;2023-05-21T17:45:15;28.27;;;18.10;;
35418;SDS011;21525;41.240;16.500;2023-05-21T17:47:41;31.05;;;20.25;;
35418;SDS011;21525;41.240;16.500;2023-05-21T17:50:07;32.70;;;20.60;;
35418;SDS011;21525;41.240;16.500;2023-05-21T17:52:33;26.60;;;18.67;;
35418;SDS011;21525;41.240;16.500;2023-05-21T17:54:59;37.35;;;19.15;;
35418;SDS011;21525;41.240;16.500;2023-05-21T17:57:26;29.38;;;20.27;;
35418;SDS011;21525;41.240;16.500;2023-05-21T17:59:51;29.30;;;20.70;;
35418;SDS011;21525;41.240;16.500;2023-05-21T18:02:19;27.60;;;18.48;;
35418;SDS011;21525;41.240;16.500;2023-05-21T18:04:45;35.10;;;18.40;;
35418;SDS011;21525;41.240;16.500;2023-05-21T18:07:10;27.75;;;17.75;;
35418;SDS011;21525;41.240;16.500;2023-05-21T18:09:36;30.35;;;19.92;;